Airfield :
LOGIN :

Register | Disclaimer

   EN    FR    IT 

 










Legend :    VFR   Marginal VFR   IFR   Intensive IFR   Very Intensive IFR
Visi :
Ceiling :
>= 8 km
>= 3000ft
5 to 8 km
1000 to 3000 ft
1500m to 5 km
500 to 1000 ft
800 to 1500m
200 to 500 ft
< 800m
< 200 ft
Symbols :   Thunderstorms  Fog  Heavy snow  Heavy precipitations  Wind > 20 kt
SIGMETs :     Misc.  Thunderstorms  Icing  Turbulence  Mountain Waves  Volcanic Ashes






- Airport Elevation : 844 ft
- IATA code : OSR


LKMT - Ostrava-Mosnov

CURRENT METAR :
  • 280030Z 21004KT 9999 FEW034 M05/M07 Q1012 NOSIG

EXPIRED METARs :
  • 280000Z 20003KT 9999 SCT036 M05/M07 Q1012 NOSIG
  • 272330Z 21004KT 9999 SCT038 M04/M06 Q1012 NOSIG
  • 272300Z 21004KT CAVOK M05/M07 Q1012 NOSIG
  • 272230Z 19004KT CAVOK M03/M06 Q1013 NOSIG
  • 272200Z 19004KT CAVOK M03/M05 Q1013 NOSIG

TAF TAF LKMT
Valid from the 28 at 00:00 until the 29 at 06:00 UTC


272300Z 2800/2906 21005KT CAVOK
BECMG 2806/2808 9999 BKN017
TEMPO 2809/2816 22012G28KT 6000 -SN BKN012
BECMG 2816/2818 6000 SN BKN012
TEMPO 2818/2906 1200 SN BR BKN004



MET'MAP, your aeronautical weather chart ! - Copyright ORBIFLY December 2007 - Disclaimer

ORBIFLY MET'MAP TEAM :

Programming & Development : Alexandra Zaïnal
Concept & original design : Baudouin d'Aumeries
Assistance for programming : Marc-Olivier Méhu
Technical & hardware support : Manuel Goepfert

Contact : metmap@orbifly.com




SOURCES & CREDITS :

   NOAA